sensor_id;sensor_type;location;lat;lon;timestamp;P1;durP1;ratioP1;P2;durP2;ratioP2
1625;SDS011;806;48.770;9.156;2023-08-17T00:00:22;2.30;;;1.10;;
1625;SDS011;806;48.770;9.156;2023-08-17T00:02:49;1.40;;;1.00;;
1625;SDS011;806;48.770;9.156;2023-08-17T00:05:17;1.75;;;1.10;;
1625;SDS011;806;48.770;9.156;2023-08-17T00:07:44;2.17;;;1.10;;
1625;SDS011;806;48.770;9.156;2023-08-17T00:10:11;1.60;;;1.10;;
1625;SDS011;806;48.770;9.156;2023-08-17T00:12:38;2.22;;;1.10;;
1625;SDS011;806;48.770;9.156;2023-08-17T00:15:05;2.30;;;1.30;;
1625;SDS011;806;48.770;9.156;2023-08-17T00:17:33;1.70;;;1.10;;
1625;SDS011;806;48.770;9.156;2023-08-17T00:20:00;2.80;;;1.20;;
1625;SDS011;806;48.770;9.156;2023-08-17T00:22:31;2.65;;;1.23;;
1625;SDS011;806;48.770;9.156;2023-08-17T00:24:58;1.63;;;1.20;;
1625;SDS011;806;48.770;9.156;2023-08-17T00:27:25;2.83;;;1.10;;
1625;SDS011;806;48.770;9.156;2023-08-17T00:29:52;3.70;;;1.38;;
1625;SDS011;806;48.770;9.156;2023-08-17T00:32:19;1.80;;;1.45;;
1625;SDS011;806;48.770;9.156;2023-08-17T00:34:46;1.90;;;1.10;;
1625;SDS011;806;48.770;9.156;2023-08-17T00:37:13;1.80;;;1.10;;
1625;SDS011;806;48.770;9.156;2023-08-17T00:39:41;2.50;;;1.40;;
1625;SDS011;806;48.770;9.156;2023-08-17T00:42:08;2.80;;;1.30;;
1625;SDS011;806;48.770;9.156;2023-08-17T00:44:35;1.90;;;1.30;;
1625;SDS011;806;48.770;9.156;2023-08-17T00:47:02;1.80;;;1.30;;
1625;SDS011;806;48.770;9.156;2023-08-17T00:49:30;1.90;;;1.10;;
1625;SDS011;806;48.770;9.156;2023-08-17T00:51:57;2.10;;;1.20;;
1625;SDS011;806;48.770;9.156;2023-08-17T00:54:25;2.38;;;1.20;;
1625;SDS011;806;48.770;9.156;2023-08-17T00:56:56;2.55;;;1.20;;
1625;SDS011;806;48.770;9.156;2023-08-17T00:59:24;2.80;;;1.20;;
1625;SDS011;806;48.770;9.156;2023-08-17T01:01:51;2.10;;;1.30;;
1625;SDS011;806;48.770;9.156;2023-08-17T01:04:18;1.80;;;1.30;;
1625;SDS011;806;48.770;9.156;2023-08-17T01:06:45;1.50;;;1.20;;
1625;SDS011;806;48.770;9.156;2023-08-17T01:09:12;1.88;;;1.20;;
1625;SDS011;806;48.770;9.156;2023-08-17T01:11:41;2.05;;;1.30;;
1625;SDS011;806;48.770;9.156;2023-08-17T01:14:17;1.50;;;1.30;;
1625;SDS011;806;48.770;9.156;2023-08-17T01:16:52;2.53;;;1.23;;
1625;SDS011;806;48.770;9.156;2023-08-17T01:19:26;2.10;;;1.30;;
1625;SDS011;806;48.770;9.156;2023-08-17T01:21:55;1.40;;;1.20;;
1625;SDS011;806;48.770;9.156;2023-08-17T01:24:27;2.10;;;1.30;;
1625;SDS011;806;48.770;9.156;2023-08-17T01:26:54;2.10;;;1.20;;
1625;SDS011;806;48.770;9.156;2023-08-17T01:29:21;1.50;;;1.20;;
1625;SDS011;806;48.770;9.156;2023-08-17T01:31:51;1.50;;;1.10;;
1625;SDS011;806;48.770;9.156;2023-08-17T01:34:25;1.98;;;1.30;;
1625;SDS011;806;48.770;9.156;2023-08-17T01:36:55;3.00;;;1.35;;
1625;SDS011;806;48.770;9.156;2023-08-17T01:39:26;2.42;;;1.23;;
1625;SDS011;806;48.770;9.156;2023-08-17T01:42:01;3.10;;;1.10;;
1625;SDS011;806;48.770;9.156;2023-08-17T01:44:28;2.15;;;1.10;;
1625;SDS011;806;48.770;9.156;2023-08-17T01:46:56;2.30;;;1.10;;
1625;SDS011;806;48.770;9.156;2023-08-17T01:49:23;2.25;;;1.30;;
1625;SDS011;806;48.770;9.156;2023-08-17T01:51:50;1.50;;;1.20;;
1625;SDS011;806;48.770;9.156;2023-08-17T01:54:17;2.40;;;1.20;;
1625;SDS011;806;48.770;9.156;2023-08-17T01:56:45;2.40;;;1.30;;
1625;SDS011;806;48.770;9.156;2023-08-17T01:59:12;1.75;;;1.10;;
1625;SDS011;806;48.770;9.156;2023-08-17T02:01:39;2.30;;;1.20;;
1625;SDS011;806;48.770;9.156;2023-08-17T02:04:06;1.80;;;1.13;;
1625;SDS011;806;48.770;9.156;2023-08-17T02:06:33;1.58;;;1.20;;
1625;SDS011;806;48.770;9.156;2023-08-17T02:09:00;3.23;;;1.30;;
1625;SDS011;806;48.770;9.156;2023-08-17T02:11:27;2.20;;;1.30;;
1625;SDS011;806;48.770;9.156;2023-08-17T02:13:55;4.35;;;1.50;;
1625;SDS011;806;48.770;9.156;2023-08-17T02:16:22;2.97;;;2.10;;
1625;SDS011;806;48.770;9.156;2023-08-17T02:18:49;2.67;;;1.60;;
1625;SDS011;806;48.770;9.156;2023-08-17T02:21:16;5.25;;;2.60;;
1625;SDS011;806;48.770;9.156;2023-08-17T02:23:43;3.60;;;2.22;;
1625;SDS011;806;48.770;9.156;2023-08-17T02:26:10;4.40;;;2.30;;
1625;SDS011;806;48.770;9.156;2023-08-17T02:28:37;2.90;;;1.80;;
1625;SDS011;806;48.770;9.156;2023-08-17T02:31:06;3.80;;;2.20;;
1625;SDS011;806;48.770;9.156;2023-08-17T02:33:33;2.88;;;2.28;;
1625;SDS011;806;48.770;9.156;2023-08-17T02:36:02;3.40;;;2.33;;
1625;SDS011;806;48.770;9.156;2023-08-17T02:38:29;4.70;;;2.75;;
1625;SDS011;806;48.770;9.156;2023-08-17T02:40:56;3.95;;;2.47;;
1625;SDS011;806;48.770;9.156;2023-08-17T02:43:23;3.92;;;2.78;;
1625;SDS011;806;48.770;9.156;2023-08-17T02:45:50;2.95;;;1.60;;
1625;SDS011;806;48.770;9.156;2023-08-17T02:48:18;4.65;;;2.75;;
1625;SDS011;806;48.770;9.156;2023-08-17T02:50:45;4.03;;;2.55;;
1625;SDS011;806;48.770;9.156;2023-08-17T02:53:12;4.13;;;2.60;;
1625;SDS011;806;48.770;9.156;2023-08-17T02:55:39;6.07;;;3.40;;
1625;SDS011;806;48.770;9.156;2023-08-17T02:58:06;3.67;;;2.50;;
1625;SDS011;806;48.770;9.156;2023-08-17T03:00:34;4.43;;;3.33;;
1625;SDS011;806;48.770;9.156;2023-08-17T03:03:01;5.00;;;2.47;;
1625;SDS011;806;48.770;9.156;2023-08-17T03:05:29;5.75;;;2.85;;
1625;SDS011;806;48.770;9.156;2023-08-17T03:07:56;4.30;;;2.83;;
1625;SDS011;806;48.770;9.156;2023-08-17T03:10:23;3.80;;;2.60;;
1625;SDS011;806;48.770;9.156;2023-08-17T03:12:51;3.58;;;2.40;;
1625;SDS011;806;48.770;9.156;2023-08-17T03:15:18;4.50;;;2.45;;
1625;SDS011;806;48.770;9.156;2023-08-17T03:17:45;3.90;;;3.20;;
1625;SDS011;806;48.770;9.156;2023-08-17T03:20:12;3.80;;;2.37;;
1625;SDS011;806;48.770;9.156;2023-08-17T03:22:40;5.10;;;3.10;;
1625;SDS011;806;48.770;9.156;2023-08-17T03:25:07;5.10;;;2.50;;
1625;SDS011;806;48.770;9.156;2023-08-17T03:27:35;5.20;;;2.60;;
1625;SDS011;806;48.770;9.156;2023-08-17T03:30:02;4.13;;;2.63;;
1625;SDS011;806;48.770;9.156;2023-08-17T03:32:30;4.20;;;2.80;;
1625;SDS011;806;48.770;9.156;2023-08-17T03:34:57;4.35;;;2.60;;
1625;SDS011;806;48.770;9.156;2023-08-17T03:37:24;6.38;;;3.05;;
1625;SDS011;806;48.770;9.156;2023-08-17T03:39:52;8.55;;;3.25;;
1625;SDS011;806;48.770;9.156;2023-08-17T03:42:19;5.35;;;3.60;;
1625;SDS011;806;48.770;9.156;2023-08-17T03:44:46;5.18;;;3.17;;
1625;SDS011;806;48.770;9.156;2023-08-17T03:47:13;5.13;;;2.57;;
1625;SDS011;806;48.770;9.156;2023-08-17T03:49:40;5.07;;;3.45;;
1625;SDS011;806;48.770;9.156;2023-08-17T03:52:07;4.55;;;2.88;;
1625;SDS011;806;48.770;9.156;2023-08-17T03:54:35;4.63;;;3.00;;
1625;SDS011;806;48.770;9.156;2023-08-17T03:57:03;5.70;;;3.30;;
1625;SDS011;806;48.770;9.156;2023-08-17T03:59:30;5.50;;;3.40;;
1625;SDS011;806;48.770;9.156;2023-08-17T04:01:57;6.57;;;3.50;;
1625;SDS011;806;48.770;9.156;2023-08-17T04:04:25;4.55;;;3.50;;
1625;SDS011;806;48.770;9.156;2023-08-17T04:06:52;4.18;;;2.90;;
1625;SDS011;806;48.770;9.156;2023-08-17T04:09:19;4.40;;;3.50;;
1625;SDS011;806;48.770;9.156;2023-08-17T04:11:46;4.68;;;3.30;;
1625;SDS011;806;48.770;9.156;2023-08-17T04:14:14;4.18;;;2.45;;
1625;SDS011;806;48.770;9.156;2023-08-17T04:16:41;3.88;;;2.72;;
1625;SDS011;806;48.770;9.156;2023-08-17T04:19:08;5.60;;;2.90;;
1625;SDS011;806;48.770;9.156;2023-08-17T04:21:35;5.75;;;3.45;;
1625;SDS011;806;48.770;9.156;2023-08-17T04:24:02;3.42;;;2.50;;
1625;SDS011;806;48.770;9.156;2023-08-17T04:26:30;4.53;;;3.90;;
1625;SDS011;806;48.770;9.156;2023-08-17T04:28:57;5.50;;;5.00;;
1625;SDS011;806;48.770;9.156;2023-08-17T04:31:25;5.63;;;4.43;;
1625;SDS011;806;48.770;9.156;2023-08-17T04:33:53;4.05;;;3.00;;
1625;SDS011;806;48.770;9.156;2023-08-17T04:36:19;5.72;;;4.25;;
1625;SDS011;806;48.770;9.156;2023-08-17T04:38:46;5.65;;;4.05;;
1625;SDS011;806;48.770;9.156;2023-08-17T04:41:13;6.97;;;4.15;;
1625;SDS011;806;48.770;9.156;2023-08-17T04:43:42;6.72;;;4.55;;
1625;SDS011;806;48.770;9.156;2023-08-17T04:46:11;7.10;;;5.17;;
1625;SDS011;806;48.770;9.156;2023-08-17T04:48:40;7.10;;;4.63;;
1625;SDS011;806;48.770;9.156;2023-08-17T04:51:07;5.28;;;4.03;;
1625;SDS011;806;48.770;9.156;2023-08-17T04:53:34;7.00;;;4.85;;
1625;SDS011;806;48.770;9.156;2023-08-17T04:56:02;8.38;;;5.53;;
1625;SDS011;806;48.770;9.156;2023-08-17T04:58:29;6.43;;;4.40;;
1625;SDS011;806;48.770;9.156;2023-08-17T05:00:56;7.55;;;4.15;;
1625;SDS011;806;48.770;9.156;2023-08-17T05:03:23;6.63;;;4.50;;
1625;SDS011;806;48.770;9.156;2023-08-17T05:05:52;6.28;;;4.55;;
1625;SDS011;806;48.770;9.156;2023-08-17T05:08:19;6.75;;;4.25;;
1625;SDS011;806;48.770;9.156;2023-08-17T05:10:47;5.03;;;3.70;;
1625;SDS011;806;48.770;9.156;2023-08-17T05:13:14;5.32;;;4.13;;
1625;SDS011;806;48.770;9.156;2023-08-17T05:15:41;6.05;;;4.10;;
1625;SDS011;806;48.770;9.156;2023-08-17T05:18:08;7.07;;;4.60;;
1625;SDS011;806;48.770;9.156;2023-08-17T05:20:35;7.90;;;5.20;;
1625;SDS011;806;48.770;9.156;2023-08-17T05:23:03;6.05;;;4.43;;
1625;SDS011;806;48.770;9.156;2023-08-17T05:25:30;8.55;;;4.75;;
1625;SDS011;806;48.770;9.156;2023-08-17T05:27:57;8.50;;;5.28;;
1625;SDS011;806;48.770;9.156;2023-08-17T05:30:24;7.78;;;4.90;;
1625;SDS011;806;48.770;9.156;2023-08-17T05:32:51;5.75;;;4.40;;
1625;SDS011;806;48.770;9.156;2023-08-17T05:35:18;6.72;;;4.32;;
1625;SDS011;806;48.770;9.156;2023-08-17T05:37:45;8.05;;;5.60;;
1625;SDS011;806;48.770;9.156;2023-08-17T05:40:13;9.13;;;5.60;;
1625;SDS011;806;48.770;9.156;2023-08-17T05:42:40;7.70;;;5.20;;
1625;SDS011;806;48.770;9.156;2023-08-17T05:45:08;8.02;;;6.03;;
1625;SDS011;806;48.770;9.156;2023-08-17T05:47:35;6.18;;;4.20;;
1625;SDS011;806;48.770;9.156;2023-08-17T05:50:02;4.87;;;3.10;;
1625;SDS011;806;48.770;9.156;2023-08-17T05:52:30;6.90;;;4.65;;
1625;SDS011;806;48.770;9.156;2023-08-17T05:54:57;7.82;;;3.90;;
1625;SDS011;806;48.770;9.156;2023-08-17T05:57:26;5.20;;;3.92;;
1625;SDS011;806;48.770;9.156;2023-08-17T05:59:53;7.10;;;4.03;;
1625;SDS011;806;48.770;9.156;2023-08-17T06:02:20;4.30;;;3.70;;
1625;SDS011;806;48.770;9.156;2023-08-17T06:04:47;5.90;;;4.40;;
1625;SDS011;806;48.770;9.156;2023-08-17T06:07:14;6.07;;;4.38;;
1625;SDS011;806;48.770;9.156;2023-08-17T06:09:41;6.25;;;4.38;;
1625;SDS011;806;48.770;9.156;2023-08-17T06:12:08;7.82;;;4.78;;
1625;SDS011;806;48.770;9.156;2023-08-17T06:14:36;5.60;;;4.30;;
1625;SDS011;806;48.770;9.156;2023-08-17T06:17:03;5.70;;;4.20;;
1625;SDS011;806;48.770;9.156;2023-08-17T06:19:30;5.80;;;4.10;;
1625;SDS011;806;48.770;9.156;2023-08-17T06:21:58;7.35;;;5.18;;
1625;SDS011;806;48.770;9.156;2023-08-17T06:24:25;5.45;;;4.38;;
1625;SDS011;806;48.770;9.156;2023-08-17T06:26:52;5.90;;;4.30;;
1625;SDS011;806;48.770;9.156;2023-08-17T06:29:19;5.25;;;3.90;;
1625;SDS011;806;48.770;9.156;2023-08-17T06:31:47;3.57;;;3.20;;
1625;SDS011;806;48.770;9.156;2023-08-17T06:34:14;4.40;;;4.00;;
1625;SDS011;806;48.770;9.156;2023-08-17T06:36:41;5.15;;;3.53;;
1625;SDS011;806;48.770;9.156;2023-08-17T06:39:08;4.75;;;3.13;;
1625;SDS011;806;48.770;9.156;2023-08-17T06:41:35;3.50;;;2.90;;
1625;SDS011;806;48.770;9.156;2023-08-17T06:44:02;3.70;;;2.30;;
1625;SDS011;806;48.770;9.156;2023-08-17T06:46:31;4.50;;;3.90;;
1625;SDS011;806;48.770;9.156;2023-08-17T06:48:59;5.03;;;3.55;;
1625;SDS011;806;48.770;9.156;2023-08-17T06:51:26;6.07;;;3.30;;
1625;SDS011;806;48.770;9.156;2023-08-17T06:53:53;5.63;;;4.03;;
1625;SDS011;806;48.770;9.156;2023-08-17T06:56:20;5.60;;;4.40;;
1625;SDS011;806;48.770;9.156;2023-08-17T06:58:47;3.33;;;2.70;;
1625;SDS011;806;48.770;9.156;2023-08-17T07:01:14;5.32;;;3.28;;
1625;SDS011;806;48.770;9.156;2023-08-17T07:03:41;4.35;;;3.33;;
1625;SDS011;806;48.770;9.156;2023-08-17T07:06:10;6.60;;;4.32;;
1625;SDS011;806;48.770;9.156;2023-08-17T07:08:37;4.38;;;3.53;;
1625;SDS011;806;48.770;9.156;2023-08-17T07:11:04;5.32;;;3.78;;
1625;SDS011;806;48.770;9.156;2023-08-17T07:13:33;4.57;;;3.20;;
1625;SDS011;806;48.770;9.156;2023-08-17T07:16:00;5.65;;;3.10;;
1625;SDS011;806;48.770;9.156;2023-08-17T07:18:27;4.90;;;3.72;;
1625;SDS011;806;48.770;9.156;2023-08-17T07:20:54;4.40;;;3.90;;
1625;SDS011;806;48.770;9.156;2023-08-17T07:23:23;5.90;;;3.28;;
1625;SDS011;806;48.770;9.156;2023-08-17T07:25:50;7.03;;;4.50;;
1625;SDS011;806;48.770;9.156;2023-08-17T07:28:16;5.50;;;4.10;;
1625;SDS011;806;48.770;9.156;2023-08-17T07:30:43;5.00;;;2.70;;
1625;SDS011;806;48.770;9.156;2023-08-17T07:33:11;7.20;;;4.15;;
1625;SDS011;806;48.770;9.156;2023-08-17T07:35:38;5.22;;;3.70;;
1625;SDS011;806;48.770;9.156;2023-08-17T07:38:05;4.75;;;3.75;;
1625;SDS011;806;48.770;9.156;2023-08-17T07:40:33;4.40;;;2.90;;
1625;SDS011;806;48.770;9.156;2023-08-17T07:43:00;4.43;;;3.00;;
1625;SDS011;806;48.770;9.156;2023-08-17T07:45:27;3.67;;;2.63;;
1625;SDS011;806;48.770;9.156;2023-08-17T07:47:54;6.68;;;4.45;;
1625;SDS011;806;48.770;9.156;2023-08-17T07:50:21;5.97;;;4.22;;
1625;SDS011;806;48.770;9.156;2023-08-17T07:52:48;4.43;;;3.63;;
1625;SDS011;806;48.770;9.156;2023-08-17T07:55:15;4.18;;;3.20;;
1625;SDS011;806;48.770;9.156;2023-08-17T07:57:43;4.07;;;3.50;;
1625;SDS011;806;48.770;9.156;2023-08-17T08:00:11;4.78;;;3.40;;
1625;SDS011;806;48.770;9.156;2023-08-17T08:02:38;4.00;;;2.63;;
1625;SDS011;806;48.770;9.156;2023-08-17T08:05:05;3.35;;;2.08;;
1625;SDS011;806;48.770;9.156;2023-08-17T08:07:33;3.70;;;3.30;;
1625;SDS011;806;48.770;9.156;2023-08-17T08:10:00;3.83;;;3.42;;
1625;SDS011;806;48.770;9.156;2023-08-17T08:12:27;5.32;;;3.42;;
1625;SDS011;806;48.770;9.156;2023-08-17T08:14:55;3.10;;;2.80;;
1625;SDS011;806;48.770;9.156;2023-08-17T08:17:22;4.10;;;2.88;;
1625;SDS011;806;48.770;9.156;2023-08-17T08:19:49;3.70;;;2.00;;
1625;SDS011;806;48.770;9.156;2023-08-17T08:22:16;2.72;;;2.20;;
1625;SDS011;806;48.770;9.156;2023-08-17T08:24:43;5.05;;;3.42;;
1625;SDS011;806;48.770;9.156;2023-08-17T08:27:10;4.07;;;3.28;;
1625;SDS011;806;48.770;9.156;2023-08-17T08:29:37;3.50;;;2.13;;
1625;SDS011;806;48.770;9.156;2023-08-17T08:32:06;4.50;;;2.50;;
1625;SDS011;806;48.770;9.156;2023-08-17T08:34:33;3.15;;;2.38;;
1625;SDS011;806;48.770;9.156;2023-08-17T08:37:00;3.40;;;3.10;;
1625;SDS011;806;48.770;9.156;2023-08-17T08:39:27;3.72;;;2.10;;
1625;SDS011;806;48.770;9.156;2023-08-17T08:41:54;2.60;;;1.80;;
1625;SDS011;806;48.770;9.156;2023-08-17T08:44:21;2.78;;;1.80;;
1625;SDS011;806;48.770;9.156;2023-08-17T08:46:48;2.60;;;1.70;;
1625;SDS011;806;48.770;9.156;2023-08-17T08:49:18;3.42;;;2.70;;
1625;SDS011;806;48.770;9.156;2023-08-17T08:51:50;3.08;;;2.40;;
1625;SDS011;806;48.770;9.156;2023-08-17T08:54:20;2.50;;;1.95;;
1625;SDS011;806;48.770;9.156;2023-08-17T08:56:49;2.58;;;1.90;;
1625;SDS011;806;48.770;9.156;2023-08-17T08:59:20;2.70;;;2.00;;
1625;SDS011;806;48.770;9.156;2023-08-17T09:01:47;2.50;;;1.70;;
1625;SDS011;806;48.770;9.156;2023-08-17T09:04:15;3.80;;;1.90;;
1625;SDS011;806;48.770;9.156;2023-08-17T09:06:44;3.60;;;1.83;;
1625;SDS011;806;48.770;9.156;2023-08-17T09:09:11;2.70;;;1.60;;
1625;SDS011;806;48.770;9.156;2023-08-17T09:11:42;2.65;;;1.83;;
1625;SDS011;806;48.770;9.156;2023-08-17T09:14:09;2.40;;;1.80;;
1625;SDS011;806;48.770;9.156;2023-08-17T09:16:36;2.25;;;1.70;;
1625;SDS011;806;48.770;9.156;2023-08-17T09:19:03;2.08;;;1.73;;
1625;SDS011;806;48.770;9.156;2023-08-17T09:21:32;3.30;;;1.50;;
1625;SDS011;806;48.770;9.156;2023-08-17T09:23:59;1.80;;;1.25;;
1625;SDS011;806;48.770;9.156;2023-08-17T09:26:30;3.10;;;1.45;;
1625;SDS011;806;48.770;9.156;2023-08-17T09:28:57;1.83;;;1.40;;
1625;SDS011;806;48.770;9.156;2023-08-17T09:31:27;1.80;;;1.20;;
1625;SDS011;806;48.770;9.156;2023-08-17T09:33:57;1.70;;;1.40;;
1625;SDS011;806;48.770;9.156;2023-08-17T09:36:25;2.00;;;1.50;;
1625;SDS011;806;48.770;9.156;2023-08-17T09:38:53;2.13;;;1.70;;
1625;SDS011;806;48.770;9.156;2023-08-17T09:41:22;2.00;;;1.50;;
1625;SDS011;806;48.770;9.156;2023-08-17T09:43:49;1.60;;;1.35;;
1625;SDS011;806;48.770;9.156;2023-08-17T09:46:17;1.90;;;1.30;;
1625;SDS011;806;48.770;9.156;2023-08-17T09:48:44;1.60;;;1.50;;
1625;SDS011;806;48.770;9.156;2023-08-17T09:51:14;2.80;;;1.50;;
1625;SDS011;806;48.770;9.156;2023-08-17T09:53:42;1.60;;;1.30;;
1625;SDS011;806;48.770;9.156;2023-08-17T09:56:10;2.80;;;1.60;;
1625;SDS011;806;48.770;9.156;2023-08-17T09:58:38;3.20;;;2.20;;
1625;SDS011;806;48.770;9.156;2023-08-17T10:01:05;2.83;;;2.30;;
1625;SDS011;806;48.770;9.156;2023-08-17T10:03:35;2.25;;;1.90;;
1625;SDS011;806;48.770;9.156;2023-08-17T10:06:04;2.80;;;2.17;;
1625;SDS011;806;48.770;9.156;2023-08-17T10:08:33;3.50;;;2.50;;
1625;SDS011;806;48.770;9.156;2023-08-17T10:11:06;3.30;;;3.00;;
1625;SDS011;806;48.770;9.156;2023-08-17T10:13:37;2.20;;;1.80;;
1625;SDS011;806;48.770;9.156;2023-08-17T10:16:11;3.17;;;2.00;;
1625;SDS011;806;48.770;9.156;2023-08-17T10:18:50;2.50;;;2.03;;
1625;SDS011;806;48.770;9.156;2023-08-17T10:21:23;2.50;;;2.00;;
1625;SDS011;806;48.770;9.156;2023-08-17T10:23:55;2.70;;;1.77;;
1625;SDS011;806;48.770;9.156;2023-08-17T10:26:23;3.25;;;2.08;;
1625;SDS011;806;48.770;9.156;2023-08-17T10:28:53;3.50;;;2.03;;
1625;SDS011;806;48.770;9.156;2023-08-17T10:31:23;2.80;;;1.70;;
1625;SDS011;806;48.770;9.156;2023-08-17T10:33:52;2.50;;;2.20;;
1625;SDS011;806;48.770;9.156;2023-08-17T10:36:22;2.83;;;2.00;;
1625;SDS011;806;48.770;9.156;2023-08-17T10:41:47;2.70;;;2.05;;
1625;SDS011;806;48.770;9.156;2023-08-17T10:44:17;3.47;;;1.98;;
1625;SDS011;806;48.770;9.156;2023-08-17T10:47:18;2.25;;;1.50;;
1625;SDS011;806;48.770;9.156;2023-08-17T10:49:47;1.90;;;1.47;;
1625;SDS011;806;48.770;9.156;2023-08-17T10:52:19;2.30;;;1.70;;
1625;SDS011;806;48.770;9.156;2023-08-17T10:54:54;2.50;;;2.00;;
1625;SDS011;806;48.770;9.156;2023-08-17T10:57:29;2.55;;;1.75;;
1625;SDS011;806;48.770;9.156;2023-08-17T11:00:06;2.17;;;1.98;;
1625;SDS011;806;48.770;9.156;2023-08-17T11:02:53;2.60;;;2.03;;
1625;SDS011;806;48.770;9.156;2023-08-17T11:08:08;2.35;;;2.00;;
1625;SDS011;806;48.770;9.156;2023-08-17T11:10:36;2.70;;;1.60;;
1625;SDS011;806;48.770;9.156;2023-08-17T11:13:04;2.70;;;2.38;;
1625;SDS011;806;48.770;9.156;2023-08-17T11:15:37;2.50;;;1.98;;
1625;SDS011;806;48.770;9.156;2023-08-17T11:18:07;2.40;;;1.73;;
1625;SDS011;806;48.770;9.156;2023-08-17T11:20:35;1.83;;;1.58;;
1625;SDS011;806;48.770;9.156;2023-08-17T11:23:04;1.92;;;1.60;;
1625;SDS011;806;48.770;9.156;2023-08-17T11:25:31;2.30;;;2.00;;
1625;SDS011;806;48.770;9.156;2023-08-17T11:27:59;1.75;;;1.40;;
1625;SDS011;806;48.770;9.156;2023-08-17T11:30:27;2.28;;;1.73;;
1625;SDS011;806;48.770;9.156;2023-08-17T11:32:56;1.85;;;1.63;;
1625;SDS011;806;48.770;9.156;2023-08-17T11:35:23;2.80;;;1.60;;
1625;SDS011;806;48.770;9.156;2023-08-17T11:37:51;2.13;;;1.40;;
1625;SDS011;806;48.770;9.156;2023-08-17T11:40:18;2.58;;;1.77;;
1625;SDS011;806;48.770;9.156;2023-08-17T11:42:45;2.80;;;1.70;;
1625;SDS011;806;48.770;9.156;2023-08-17T11:45:12;2.70;;;1.60;;
1625;SDS011;806;48.770;9.156;2023-08-17T11:47:40;2.20;;;1.50;;
1625;SDS011;806;48.770;9.156;2023-08-17T11:50:10;2.20;;;1.60;;
1625;SDS011;806;48.770;9.156;2023-08-17T11:52:38;1.80;;;1.52;;
1625;SDS011;806;48.770;9.156;2023-08-17T11:55:05;1.90;;;1.70;;
1625;SDS011;806;48.770;9.156;2023-08-17T11:57:35;3.25;;;2.80;;
1625;SDS011;806;48.770;9.156;2023-08-17T12:00:03;3.20;;;2.75;;
1625;SDS011;806;48.770;9.156;2023-08-17T12:02:32;3.20;;;1.98;;
1625;SDS011;806;48.770;9.156;2023-08-17T12:05:02;2.60;;;1.80;;
1625;SDS011;806;48.770;9.156;2023-08-17T12:07:32;1.80;;;1.40;;
1625;SDS011;806;48.770;9.156;2023-08-17T12:10:00;2.10;;;1.70;;
1625;SDS011;806;48.770;9.156;2023-08-17T12:12:29;2.45;;;1.77;;
1625;SDS011;806;48.770;9.156;2023-08-17T12:14:57;2.08;;;1.65;;
1625;SDS011;806;48.770;9.156;2023-08-17T12:17:24;2.60;;;2.00;;
1625;SDS011;806;48.770;9.156;2023-08-17T12:19:53;2.08;;;1.80;;
1625;SDS011;806;48.770;9.156;2023-08-17T12:22:23;2.10;;;1.90;;
1625;SDS011;806;48.770;9.156;2023-08-17T12:24:52;2.60;;;1.60;;
1625;SDS011;806;48.770;9.156;2023-08-17T12:27:21;3.50;;;2.20;;
1625;SDS011;806;48.770;9.156;2023-08-17T12:29:49;2.40;;;1.98;;
1625;SDS011;806;48.770;9.156;2023-08-17T12:32:17;3.25;;;2.58;;
1625;SDS011;806;48.770;9.156;2023-08-17T12:34:45;2.53;;;2.30;;
1625;SDS011;806;48.770;9.156;2023-08-17T12:37:17;2.90;;;2.20;;
1625;SDS011;806;48.770;9.156;2023-08-17T12:39:45;2.40;;;2.10;;
1625;SDS011;806;48.770;9.156;2023-08-17T12:42:14;3.03;;;2.17;;
1625;SDS011;806;48.770;9.156;2023-08-17T12:44:42;2.28;;;1.90;;
1625;SDS011;806;48.770;9.156;2023-08-17T12:47:09;2.50;;;2.30;;
1625;SDS011;806;48.770;9.156;2023-08-17T12:49:36;2.75;;;1.80;;
1625;SDS011;806;48.770;9.156;2023-08-17T12:52:03;3.00;;;2.10;;
1625;SDS011;806;48.770;9.156;2023-08-17T12:54:30;5.50;;;1.93;;
1625;SDS011;806;48.770;9.156;2023-08-17T12:56:57;3.00;;;1.80;;
1625;SDS011;806;48.770;9.156;2023-08-17T12:59:26;3.50;;;2.10;;
1625;SDS011;806;48.770;9.156;2023-08-17T13:01:52;2.90;;;1.87;;
1625;SDS011;806;48.770;9.156;2023-08-17T13:04:19;1.80;;;1.48;;
1625;SDS011;806;48.770;9.156;2023-08-17T13:06:46;2.40;;;1.40;;
1625;SDS011;806;48.770;9.156;2023-08-17T13:09:16;3.00;;;1.60;;
1625;SDS011;806;48.770;9.156;2023-08-17T13:11:44;1.60;;;1.40;;
1625;SDS011;806;48.770;9.156;2023-08-17T13:14:13;2.00;;;1.88;;
1625;SDS011;806;48.770;9.156;2023-08-17T13:16:43;1.50;;;1.40;;
1625;SDS011;806;48.770;9.156;2023-08-17T13:19:11;1.70;;;1.30;;
1625;SDS011;806;48.770;9.156;2023-08-17T13:21:39;3.33;;;1.42;;
1625;SDS011;806;48.770;9.156;2023-08-17T13:24:07;2.20;;;1.20;;
1625;SDS011;806;48.770;9.156;2023-08-17T13:26:35;1.90;;;1.45;;
1625;SDS011;806;48.770;9.156;2023-08-17T13:29:02;1.60;;;1.20;;
1625;SDS011;806;48.770;9.156;2023-08-17T13:31:30;2.80;;;1.50;;
1625;SDS011;806;48.770;9.156;2023-08-17T13:33:58;2.60;;;1.70;;
1625;SDS011;806;48.770;9.156;2023-08-17T13:36:25;2.00;;;1.58;;
1625;SDS011;806;48.770;9.156;2023-08-17T13:38:53;2.47;;;1.60;;
1625;SDS011;806;48.770;9.156;2023-08-17T13:41:20;2.08;;;1.60;;
1625;SDS011;806;48.770;9.156;2023-08-17T13:43:50;2.50;;;1.90;;
1625;SDS011;806;48.770;9.156;2023-08-17T13:46:16;2.70;;;1.80;;
1625;SDS011;806;48.770;9.156;2023-08-17T13:48:43;2.05;;;1.70;;
1625;SDS011;806;48.770;9.156;2023-08-17T13:51:12;2.90;;;1.98;;
1625;SDS011;806;48.770;9.156;2023-08-17T13:53:39;2.40;;;1.60;;
1625;SDS011;806;48.770;9.156;2023-08-17T13:56:06;2.55;;;1.65;;
1625;SDS011;806;48.770;9.156;2023-08-17T13:58:34;2.00;;;1.60;;
1625;SDS011;806;48.770;9.156;2023-08-17T14:01:01;1.60;;;1.50;;
1625;SDS011;806;48.770;9.156;2023-08-17T14:03:28;2.40;;;1.52;;
1625;SDS011;806;48.770;9.156;2023-08-17T14:05:55;2.10;;;1.60;;
1625;SDS011;806;48.770;9.156;2023-08-17T14:08:24;2.33;;;1.80;;
1625;SDS011;806;48.770;9.156;2023-08-17T14:10:51;2.70;;;1.70;;
1625;SDS011;806;48.770;9.156;2023-08-17T14:13:18;2.80;;;1.60;;
1625;SDS011;806;48.770;9.156;2023-08-17T14:15:45;3.00;;;1.73;;
1625;SDS011;806;48.770;9.156;2023-08-17T14:18:12;2.03;;;1.83;;
1625;SDS011;806;48.770;9.156;2023-08-17T14:20:39;2.38;;;1.63;;
1625;SDS011;806;48.770;9.156;2023-08-17T14:23:06;2.72;;;1.70;;
1625;SDS011;806;48.770;9.156;2023-08-17T14:25:34;3.30;;;1.70;;
1625;SDS011;806;48.770;9.156;2023-08-17T14:28:03;2.90;;;1.80;;
1625;SDS011;806;48.770;9.156;2023-08-17T14:30:32;2.80;;;2.03;;
1625;SDS011;806;48.770;9.156;2023-08-17T14:32:59;2.60;;;2.00;;
1625;SDS011;806;48.770;9.156;2023-08-17T14:35:27;2.37;;;1.70;;
1625;SDS011;806;48.770;9.156;2023-08-17T14:37:54;2.35;;;1.90;;
1625;SDS011;806;48.770;9.156;2023-08-17T14:40:22;2.70;;;1.70;;
1625;SDS011;806;48.770;9.156;2023-08-17T14:42:51;3.60;;;1.90;;
1625;SDS011;806;48.770;9.156;2023-08-17T14:45:18;2.10;;;1.70;;
1625;SDS011;806;48.770;9.156;2023-08-17T14:47:45;2.27;;;1.87;;
1625;SDS011;806;48.770;9.156;2023-08-17T14:50:12;2.00;;;1.50;;
1625;SDS011;806;48.770;9.156;2023-08-17T14:52:40;2.10;;;1.70;;
1625;SDS011;806;48.770;9.156;2023-08-17T14:55:07;2.90;;;1.50;;
1625;SDS011;806;48.770;9.156;2023-08-17T14:57:35;2.50;;;1.30;;
1625;SDS011;806;48.770;9.156;2023-08-17T15:00:05;1.70;;;1.52;;
1625;SDS011;806;48.770;9.156;2023-08-17T15:02:34;4.30;;;1.80;;
1625;SDS011;806;48.770;9.156;2023-08-17T15:05:01;4.60;;;1.90;;
1625;SDS011;806;48.770;9.156;2023-08-17T15:07:28;1.60;;;1.30;;
1625;SDS011;806;48.770;9.156;2023-08-17T15:09:55;2.20;;;1.60;;
1625;SDS011;806;48.770;9.156;2023-08-17T15:12:22;2.30;;;1.30;;
1625;SDS011;806;48.770;9.156;2023-08-17T15:14:49;2.72;;;1.50;;
1625;SDS011;806;48.770;9.156;2023-08-17T15:17:18;2.22;;;1.50;;
1625;SDS011;806;48.770;9.156;2023-08-17T15:19:45;3.00;;;1.67;;
1625;SDS011;806;48.770;9.156;2023-08-17T15:22:12;2.10;;;1.60;;
1625;SDS011;806;48.770;9.156;2023-08-17T15:24:39;1.95;;;1.50;;
1625;SDS011;806;48.770;9.156;2023-08-17T15:27:08;1.33;;;1.20;;
1625;SDS011;806;48.770;9.156;2023-08-17T15:29:35;3.50;;;1.63;;
1625;SDS011;806;48.770;9.156;2023-08-17T15:32:02;5.25;;;1.63;;
1625;SDS011;806;48.770;9.156;2023-08-17T15:34:31;1.60;;;1.20;;
1625;SDS011;806;48.770;9.156;2023-08-17T15:36:58;3.38;;;1.40;;
1625;SDS011;806;48.770;9.156;2023-08-17T15:39:25;2.90;;;1.60;;